sensor_id;sensor_type;location;lat;lon;timestamp;temperature;humidity
69932;DHT22;57243;52.064;5.116;2022-09-12T00:01:51;24.20;59.70
69932;DHT22;57243;52.064;5.116;2022-09-12T00:04:16;24.20;59.50
69932;DHT22;57243;52.064;5.116;2022-09-12T00:06:42;24.20;59.80
69932;DHT22;57243;52.064;5.116;2022-09-12T00:09:11;24.20;59.60
69932;DHT22;57243;52.064;5.116;2022-09-12T00:11:39;24.20;59.70
69932;DHT22;57243;52.064;5.116;2022-09-12T00:14:09;24.20;59.60
69932;DHT22;57243;52.064;5.116;2022-09-12T00:16:36;24.20;59.40
69932;DHT22;57243;52.064;5.116;2022-09-12T00:19:03;24.20;59.40
69932;DHT22;57243;52.064;5.116;2022-09-12T00:21:29;24.20;59.40
69932;DHT22;57243;52.064;5.116;2022-09-12T00:23:56;24.10;59.40
69932;DHT22;57243;52.064;5.116;2022-09-12T00:26:23;24.10;59.20
69932;DHT22;57243;52.064;5.116;2022-09-12T00:28:49;24.10;59.10
69932;DHT22;57243;52.064;5.116;2022-09-12T00:31:21;24.10;59.10
69932;DHT22;57243;52.064;5.116;2022-09-12T00:33:48;24.10;59.00
69932;DHT22;57243;52.064;5.116;2022-09-12T00:36:19;24.10;59.10
69932;DHT22;57243;52.064;5.116;2022-09-12T00:38:46;24.10;59.00
69932;DHT22;57243;52.064;5.116;2022-09-12T00:41:24;24.10;59.00
69932;DHT22;57243;52.064;5.116;2022-09-12T00:44:02;24.10;59.00
69932;DHT22;57243;52.064;5.116;2022-09-12T00:46:43;24.10;58.80
69932;DHT22;57243;52.064;5.116;2022-09-12T00:51:38;24.10;58.90
69932;DHT22;57243;52.064;5.116;2022-09-12T00:54:10;24.10;58.80
69932;DHT22;57243;52.064;5.116;2022-09-12T00:56:38;24.10;59.00
69932;DHT22;57243;52.064;5.116;2022-09-12T00:59:20;24.10;58.60
69932;DHT22;57243;52.064;5.116;2022-09-12T01:01:48;24.10;58.70
69932;DHT22;57243;52.064;5.116;2022-09-12T01:04:14;24.10;58.70
69932;DHT22;57243;52.064;5.116;2022-09-12T01:06:42;24.10;58.60
69932;DHT22;57243;52.064;5.116;2022-09-12T01:09:13;24.10;58.70
69932;DHT22;57243;52.064;5.116;2022-09-12T01:11:40;24.10;58.50
69932;DHT22;57243;52.064;5.116;2022-09-12T01:14:07;24.10;58.50
69932;DHT22;57243;52.064;5.116;2022-09-12T01:16:37;24.10;58.60
69932;DHT22;57243;52.064;5.116;2022-09-12T01:21:51;24.10;58.50
69932;DHT22;57243;52.064;5.116;2022-09-12T01:35:45;24.10;58.10
69932;DHT22;57243;52.064;5.116;2022-09-12T01:38:24;24.10;58.30
69932;DHT22;57243;52.064;5.116;2022-09-12T01:47:04;24.00;57.90
69932;DHT22;57243;52.064;5.116;2022-09-12T01:49:43;24.00;57.90
69932;DHT22;57243;52.064;5.116;2022-09-12T01:54:50;24.00;57.80
69932;DHT22;57243;52.064;5.116;2022-09-12T01:57:26;24.00;57.80
69932;DHT22;57243;52.064;5.116;2022-09-12T01:59:58;24.00;57.80
69932;DHT22;57243;52.064;5.116;2022-09-12T02:02:30;24.00;57.80
69932;DHT22;57243;52.064;5.116;2022-09-12T02:08:10;24.00;57.70
69932;DHT22;57243;52.064;5.116;2022-09-12T02:10:53;24.00;57.60
69932;DHT22;57243;52.064;5.116;2022-09-12T02:19:39;24.00;57.30
69932;DHT22;57243;52.064;5.116;2022-09-12T02:22:34;24.00;57.40
69932;DHT22;57243;52.064;5.116;2022-09-12T02:25:45;24.00;57.40
69932;DHT22;57243;52.064;5.116;2022-09-12T02:28:44;24.00;57.30
69932;DHT22;57243;52.064;5.116;2022-09-12T02:34:45;24.00;57.30
69932;DHT22;57243;52.064;5.116;2022-09-12T02:37:43;24.00;57.20
69932;DHT22;57243;52.064;5.116;2022-09-12T02:40:11;24.00;57.20
69932;DHT22;57243;52.064;5.116;2022-09-12T02:42:37;24.00;57.20
69932;DHT22;57243;52.064;5.116;2022-09-12T02:45:03;24.00;57.20
69932;DHT22;57243;52.064;5.116;2022-09-12T02:47:58;24.00;57.20
69932;DHT22;57243;52.064;5.116;2022-09-12T02:50:25;24.00;57.20
69932;DHT22;57243;52.064;5.116;2022-09-12T02:52:53;24.00;57.10
69932;DHT22;57243;52.064;5.116;2022-09-12T02:55:20;24.00;57.00
69932;DHT22;57243;52.064;5.116;2022-09-12T02:57:46;24.00;57.00
69932;DHT22;57243;52.064;5.116;2022-09-12T03:00:12;24.00;57.10
69932;DHT22;57243;52.064;5.116;2022-09-12T03:02:50;24.00;57.10
69932;DHT22;57243;52.064;5.116;2022-09-12T03:05:26;23.90;57.00
69932;DHT22;57243;52.064;5.116;2022-09-12T03:16:16;23.90;56.80
69932;DHT22;57243;52.064;5.116;2022-09-12T03:18:58;23.90;56.80
69932;DHT22;57243;52.064;5.116;2022-09-12T03:21:36;23.90;56.80
69932;DHT22;57243;52.064;5.116;2022-09-12T03:24:33;23.90;56.70
69932;DHT22;57243;52.064;5.116;2022-09-12T03:29:44;23.90;56.80
69932;DHT22;57243;52.064;5.116;2022-09-12T03:32:12;23.90;56.70
69932;DHT22;57243;52.064;5.116;2022-09-12T03:34:38;23.90;56.70
69932;DHT22;57243;52.064;5.116;2022-09-12T03:37:04;23.90;56.80
69932;DHT22;57243;52.064;5.116;2022-09-12T03:39:30;23.90;56.80
69932;DHT22;57243;52.064;5.116;2022-09-12T03:41:56;23.90;56.70
69932;DHT22;57243;52.064;5.116;2022-09-12T03:44:22;23.90;56.60
69932;DHT22;57243;52.064;5.116;2022-09-12T03:46:48;23.90;56.70
69932;DHT22;57243;52.064;5.116;2022-09-12T03:49:14;23.90;56.60
69932;DHT22;57243;52.064;5.116;2022-09-12T03:51:40;23.90;56.60
69932;DHT22;57243;52.064;5.116;2022-09-12T03:54:07;23.90;56.60
69932;DHT22;57243;52.064;5.116;2022-09-12T03:56:33;23.90;56.60
69932;DHT22;57243;52.064;5.116;2022-09-12T03:59:04;23.90;56.60
69932;DHT22;57243;52.064;5.116;2022-09-12T04:01:31;23.90;56.60
69932;DHT22;57243;52.064;5.116;2022-09-12T04:03:57;23.90;56.60
69932;DHT22;57243;52.064;5.116;2022-09-12T04:06:23;23.90;56.60
69932;DHT22;57243;52.064;5.116;2022-09-12T04:08:50;23.90;56.60
69932;DHT22;57243;52.064;5.116;2022-09-12T04:11:18;23.90;56.70
69932;DHT22;57243;52.064;5.116;2022-09-12T04:13:44;23.90;56.50
69932;DHT22;57243;52.064;5.116;2022-09-12T04:16:12;23.90;56.60
69932;DHT22;57243;52.064;5.116;2022-09-12T04:18:38;24.00;56.50
69932;DHT22;57243;52.064;5.116;2022-09-12T04:21:05;24.00;56.70
69932;DHT22;57243;52.064;5.116;2022-09-12T04:23:32;24.00;57.10
69932;DHT22;57243;52.064;5.116;2022-09-12T04:25:59;24.00;57.20
69932;DHT22;57243;52.064;5.116;2022-09-12T04:28:26;24.10;57.30
69932;DHT22;57243;52.064;5.116;2022-09-12T04:30:53;24.10;57.60
69932;DHT22;57243;52.064;5.116;2022-09-12T04:33:20;24.10;57.60
69932;DHT22;57243;52.064;5.116;2022-09-12T04:35:46;24.10;57.90
69932;DHT22;57243;52.064;5.116;2022-09-12T04:38:13;24.10;59.10
69932;DHT22;57243;52.064;5.116;2022-09-12T04:40:39;24.10;58.10
69932;DHT22;57243;52.064;5.116;2022-09-12T04:43:05;24.10;58.60
69932;DHT22;57243;52.064;5.116;2022-09-12T04:45:32;24.00;58.40
69932;DHT22;57243;52.064;5.116;2022-09-12T04:47:58;24.00;57.80
69932;DHT22;57243;52.064;5.116;2022-09-12T04:50:24;24.00;57.50
69932;DHT22;57243;52.064;5.116;2022-09-12T04:52:53;24.00;57.40
69932;DHT22;57243;52.064;5.116;2022-09-12T04:55:20;23.90;57.10
69932;DHT22;57243;52.064;5.116;2022-09-12T04:57:46;23.90;57.50
69932;DHT22;57243;52.064;5.116;2022-09-12T05:00:13;23.90;57.70
69932;DHT22;57243;52.064;5.116;2022-09-12T05:02:39;24.00;57.70
69932;DHT22;57243;52.064;5.116;2022-09-12T05:05:06;23.90;57.40
69932;DHT22;57243;52.064;5.116;2022-09-12T05:07:31;23.90;57.40
69932;DHT22;57243;52.064;5.116;2022-09-12T05:09:57;23.90;57.30
69932;DHT22;57243;52.064;5.116;2022-09-12T05:12:23;23.90;57.30
69932;DHT22;57243;52.064;5.116;2022-09-12T05:14:48;23.90;57.30
69932;DHT22;57243;52.064;5.116;2022-09-12T05:17:14;23.90;57.70
69932;DHT22;57243;52.064;5.116;2022-09-12T05:19:39;24.00;58.30
69932;DHT22;57243;52.064;5.116;2022-09-12T05:22:05;23.90;57.90
69932;DHT22;57243;52.064;5.116;2022-09-12T05:24:31;23.90;58.00
69932;DHT22;57243;52.064;5.116;2022-09-12T05:26:57;23.90;57.00
69932;DHT22;57243;52.064;5.116;2022-09-12T05:29:23;23.90;56.50
69932;DHT22;57243;52.064;5.116;2022-09-12T05:31:49;23.90;56.70
69932;DHT22;57243;52.064;5.116;2022-09-12T05:34:16;23.90;56.60
69932;DHT22;57243;52.064;5.116;2022-09-12T05:36:42;23.90;56.90
69932;DHT22;57243;52.064;5.116;2022-09-12T05:39:07;23.90;56.90
69932;DHT22;57243;52.064;5.116;2022-09-12T05:41:33;23.90;56.90
69932;DHT22;57243;52.064;5.116;2022-09-12T05:44:02;23.90;56.90
69932;DHT22;57243;52.064;5.116;2022-09-12T05:46:34;23.90;56.80
69932;DHT22;57243;52.064;5.116;2022-09-12T05:49:09;23.90;56.80
69932;DHT22;57243;52.064;5.116;2022-09-12T05:51:37;23.90;56.80
69932;DHT22;57243;52.064;5.116;2022-09-12T05:54:05;23.90;57.10
69932;DHT22;57243;52.064;5.116;2022-09-12T05:56:35;23.90;57.10
69932;DHT22;57243;52.064;5.116;2022-09-12T05:59:03;23.90;57.00
69932;DHT22;57243;52.064;5.116;2022-09-12T06:01:31;23.90;57.00
69932;DHT22;57243;52.064;5.116;2022-09-12T06:04:00;23.90;56.90
69932;DHT22;57243;52.064;5.116;2022-09-12T06:06:27;23.90;56.80
69932;DHT22;57243;52.064;5.116;2022-09-12T06:08:56;23.90;56.70
69932;DHT22;57243;52.064;5.116;2022-09-12T06:11:24;23.90;56.70
69932;DHT22;57243;52.064;5.116;2022-09-12T06:13:51;23.90;56.60
69932;DHT22;57243;52.064;5.116;2022-09-12T06:16:23;23.80;56.60
69932;DHT22;57243;52.064;5.116;2022-09-12T06:18:55;23.90;56.60
69932;DHT22;57243;52.064;5.116;2022-09-12T06:21:22;23.90;56.60
69932;DHT22;57243;52.064;5.116;2022-09-12T06:23:48;23.80;56.80
69932;DHT22;57243;52.064;5.116;2022-09-12T06:26:15;23.80;57.40
69932;DHT22;57243;52.064;5.116;2022-09-12T06:28:43;23.90;59.00
69932;DHT22;57243;52.064;5.116;2022-09-12T06:31:15;23.80;57.40
69932;DHT22;57243;52.064;5.116;2022-09-12T06:33:43;23.80;58.10
69932;DHT22;57243;52.064;5.116;2022-09-12T06:36:12;23.80;59.60
69932;DHT22;57243;52.064;5.116;2022-09-12T06:38:38;23.80;56.70
69932;DHT22;57243;52.064;5.116;2022-09-12T06:41:09;23.70;56.20
69932;DHT22;57243;52.064;5.116;2022-09-12T06:43:36;23.70;54.90
69932;DHT22;57243;52.064;5.116;2022-09-12T06:46:02;23.70;54.80
69932;DHT22;57243;52.064;5.116;2022-09-12T06:48:28;23.70;54.20
69932;DHT22;57243;52.064;5.116;2022-09-12T06:50:58;23.60;53.90
69932;DHT22;57243;52.064;5.116;2022-09-12T06:53:25;23.60;54.10
69932;DHT22;57243;52.064;5.116;2022-09-12T06:55:59;23.60;53.70
69932;DHT22;57243;52.064;5.116;2022-09-12T06:58:29;23.60;53.50
69932;DHT22;57243;52.064;5.116;2022-09-12T07:01:01;23.50;53.40
69932;DHT22;57243;52.064;5.116;2022-09-12T07:03:28;23.50;53.80
69932;DHT22;57243;52.064;5.116;2022-09-12T07:05:54;23.50;53.50
69932;DHT22;57243;52.064;5.116;2022-09-12T07:08:20;23.50;53.50
69932;DHT22;57243;52.064;5.116;2022-09-12T07:10:45;23.50;53.40
69932;DHT22;57243;52.064;5.116;2022-09-12T07:13:11;23.50;53.50
69932;DHT22;57243;52.064;5.116;2022-09-12T07:15:36;23.50;53.40
69932;DHT22;57243;52.064;5.116;2022-09-12T07:18:02;23.50;53.60
69932;DHT22;57243;52.064;5.116;2022-09-12T07:20:28;23.50;53.50
69932;DHT22;57243;52.064;5.116;2022-09-12T07:22:55;23.50;53.70
69932;DHT22;57243;52.064;5.116;2022-09-12T07:25:21;23.50;53.90
69932;DHT22;57243;52.064;5.116;2022-09-12T07:27:47;23.40;53.90
69932;DHT22;57243;52.064;5.116;2022-09-12T07:30:12;23.40;53.90
69932;DHT22;57243;52.064;5.116;2022-09-12T07:32:38;23.40;54.00
69932;DHT22;57243;52.064;5.116;2022-09-12T07:35:03;23.40;53.90
69932;DHT22;57243;52.064;5.116;2022-09-12T07:37:29;23.40;53.90
69932;DHT22;57243;52.064;5.116;2022-09-12T07:39:56;23.40;53.90
69932;DHT22;57243;52.064;5.116;2022-09-12T07:42:22;23.40;54.00
69932;DHT22;57243;52.064;5.116;2022-09-12T07:44:47;23.40;54.10
69932;DHT22;57243;52.064;5.116;2022-09-12T07:47:14;23.40;54.20
69932;DHT22;57243;52.064;5.116;2022-09-12T07:49:40;23.40;54.20
69932;DHT22;57243;52.064;5.116;2022-09-12T07:52:05;23.40;54.30
69932;DHT22;57243;52.064;5.116;2022-09-12T07:54:31;23.40;54.40
69932;DHT22;57243;52.064;5.116;2022-09-12T07:56:57;23.40;54.50
69932;DHT22;57243;52.064;5.116;2022-09-12T07:59:23;23.40;54.70
69932;DHT22;57243;52.064;5.116;2022-09-12T08:01:48;23.40;54.80
69932;DHT22;57243;52.064;5.116;2022-09-12T08:04:14;23.30;54.90
69932;DHT22;57243;52.064;5.116;2022-09-12T08:06:40;23.30;55.20
69932;DHT22;57243;52.064;5.116;2022-09-12T08:09:05;23.30;55.40
69932;DHT22;57243;52.064;5.116;2022-09-12T08:11:32;23.30;55.40
69932;DHT22;57243;52.064;5.116;2022-09-12T08:13:58;23.30;55.40
69932;DHT22;57243;52.064;5.116;2022-09-12T08:16:26;23.30;55.50
69932;DHT22;57243;52.064;5.116;2022-09-12T08:18:52;23.30;55.60
69932;DHT22;57243;52.064;5.116;2022-09-12T08:21:25;23.30;55.50
69932;DHT22;57243;52.064;5.116;2022-09-12T08:23:56;23.40;55.60
69932;DHT22;57243;52.064;5.116;2022-09-12T08:26:22;23.30;55.70
69932;DHT22;57243;52.064;5.116;2022-09-12T08:28:48;23.30;56.00
69932;DHT22;57243;52.064;5.116;2022-09-12T08:31:15;23.40;55.80
69932;DHT22;57243;52.064;5.116;2022-09-12T08:33:41;23.30;55.70
69932;DHT22;57243;52.064;5.116;2022-09-12T08:38:35;23.30;56.10
69932;DHT22;57243;52.064;5.116;2022-09-12T08:47:07;23.40;56.60
69932;DHT22;57243;52.064;5.116;2022-09-12T08:52:28;23.30;56.40
69932;DHT22;57243;52.064;5.116;2022-09-12T08:54:56;23.30;56.40
69932;DHT22;57243;52.064;5.116;2022-09-12T08:57:23;23.40;56.60
69932;DHT22;57243;52.064;5.116;2022-09-12T08:59:50;23.40;56.70
69932;DHT22;57243;52.064;5.116;2022-09-12T09:16:14;23.40;57.00
69932;DHT22;57243;52.064;5.116;2022-09-12T09:18:34;23.40;57.20
69932;DHT22;57243;52.064;5.116;2022-09-12T09:24:04;23.40;57.00
69932;DHT22;57243;52.064;5.116;2022-09-12T09:29:16;23.40;56.80
69932;DHT22;57243;52.064;5.116;2022-09-12T09:31:47;23.40;56.80
69932;DHT22;57243;52.064;5.116;2022-09-12T09:34:21;23.40;56.60
69932;DHT22;57243;52.064;5.116;2022-09-12T09:36:55;23.40;56.50
69932;DHT22;57243;52.064;5.116;2022-09-12T09:42:15;23.30;56.10
69932;DHT22;57243;52.064;5.116;2022-09-12T09:44:43;23.30;56.10
69932;DHT22;57243;52.064;5.116;2022-09-12T09:47:11;23.40;56.20
69932;DHT22;57243;52.064;5.116;2022-09-12T09:49:37;23.40;56.20
69932;DHT22;57243;52.064;5.116;2022-09-12T09:52:06;23.40;56.20
69932;DHT22;57243;52.064;5.116;2022-09-12T09:54:39;23.40;56.20
69932;DHT22;57243;52.064;5.116;2022-09-12T09:57:42;23.40;56.20
69932;DHT22;57243;52.064;5.116;2022-09-12T10:00:29;23.40;56.10
69932;DHT22;57243;52.064;5.116;2022-09-12T10:08:24;23.40;56.30
69932;DHT22;57243;52.064;5.116;2022-09-12T10:10:55;23.50;56.20
69932;DHT22;57243;52.064;5.116;2022-09-12T10:16:19;23.50;56.00
69932;DHT22;57243;52.064;5.116;2022-09-12T10:18:47;23.50;55.90
69932;DHT22;57243;52.064;5.116;2022-09-12T10:21:20;23.50;56.00
69932;DHT22;57243;52.064;5.116;2022-09-12T10:23:47;23.50;55.80
69932;DHT22;57243;52.064;5.116;2022-09-12T10:26:18;23.50;55.90
69932;DHT22;57243;52.064;5.116;2022-09-12T10:28:49;23.50;56.00
69932;DHT22;57243;52.064;5.116;2022-09-12T10:31:27;23.50;56.20
69932;DHT22;57243;52.064;5.116;2022-09-12T10:33:56;23.60;56.20
69932;DHT22;57243;52.064;5.116;2022-09-12T10:36:23;23.60;56.30
69932;DHT22;57243;52.064;5.116;2022-09-12T10:38:55;23.60;56.10
69932;DHT22;57243;52.064;5.116;2022-09-12T10:41:22;23.60;55.90
69932;DHT22;57243;52.064;5.116;2022-09-12T10:43:49;23.60;55.80
69932;DHT22;57243;52.064;5.116;2022-09-12T10:48:52;23.60;55.90
69932;DHT22;57243;52.064;5.116;2022-09-12T10:51:36;23.70;56.00
69932;DHT22;57243;52.064;5.116;2022-09-12T10:54:04;23.70;56.10
69932;DHT22;57243;52.064;5.116;2022-09-12T10:56:56;23.80;56.10
69932;DHT22;57243;52.064;5.116;2022-09-12T11:05:05;23.90;56.00
69932;DHT22;57243;52.064;5.116;2022-09-12T11:16:06;23.90;56.00
69932;DHT22;57243;52.064;5.116;2022-09-12T11:29:50;24.00;55.90
69932;DHT22;57243;52.064;5.116;2022-09-12T11:32:30;24.00;55.90
69932;DHT22;57243;52.064;5.116;2022-09-12T11:40:38;24.10;55.70
69932;DHT22;57243;52.064;5.116;2022-09-12T11:45:49;24.10;55.80
69932;DHT22;57243;52.064;5.116;2022-09-12T11:48:46;24.10;55.80
69932;DHT22;57243;52.064;5.116;2022-09-12T11:51:26;24.20;55.80
69932;DHT22;57243;52.064;5.116;2022-09-12T11:54:13;24.20;55.70
69932;DHT22;57243;52.064;5.116;2022-09-12T11:56:49;24.20;55.60
69932;DHT22;57243;52.064;5.116;2022-09-12T12:02:11;24.20;55.40
69932;DHT22;57243;52.064;5.116;2022-09-12T12:04:43;24.20;55.30
69932;DHT22;57243;52.064;5.116;2022-09-12T12:07:11;24.30;55.30
69932;DHT22;57243;52.064;5.116;2022-09-12T12:09:48;24.30;55.40
69932;DHT22;57243;52.064;5.116;2022-09-12T12:12:20;24.30;55.30
69932;DHT22;57243;52.064;5.116;2022-09-12T12:14:48;24.30;55.30
69932;DHT22;57243;52.064;5.116;2022-09-12T12:17:20;24.30;55.10
69932;DHT22;57243;52.064;5.116;2022-09-12T12:19:55;24.30;54.90
69932;DHT22;57243;52.064;5.116;2022-09-12T12:22:23;24.30;54.80
69932;DHT22;57243;52.064;5.116;2022-09-12T12:27:48;24.40;54.70
69932;DHT22;57243;52.064;5.116;2022-09-12T12:36:01;24.40;54.60
69932;DHT22;57243;52.064;5.116;2022-09-12T12:38:32;24.40;54.60
69932;DHT22;57243;52.064;5.116;2022-09-12T12:46:16;24.40;54.70
69932;DHT22;57243;52.064;5.116;2022-09-12T12:48:57;24.40;54.80
69932;DHT22;57243;52.064;5.116;2022-09-12T12:54:50;24.40;54.80
69932;DHT22;57243;52.064;5.116;2022-09-12T12:57:33;24.40;54.80
69932;DHT22;57243;52.064;5.116;2022-09-12T13:02:53;24.40;54.70
69932;DHT22;57243;52.064;5.116;2022-09-12T13:05:22;24.50;54.70
69932;DHT22;57243;52.064;5.116;2022-09-12T13:08:07;24.40;54.60
69932;DHT22;57243;52.064;5.116;2022-09-12T13:10:35;24.50;54.70
69932;DHT22;57243;52.064;5.116;2022-09-12T13:13:03;24.40;54.70
69932;DHT22;57243;52.064;5.116;2022-09-12T13:18:05;24.50;54.70
69932;DHT22;57243;52.064;5.116;2022-09-12T13:20:34;24.50;54.80
69932;DHT22;57243;52.064;5.116;2022-09-12T13:23:02;24.50;54.60
69932;DHT22;57243;52.064;5.116;2022-09-12T13:25:35;24.50;54.40
69932;DHT22;57243;52.064;5.116;2022-09-12T13:30:39;24.50;54.40
69932;DHT22;57243;52.064;5.116;2022-09-12T13:33:36;24.50;54.40
69932;DHT22;57243;52.064;5.116;2022-09-12T13:44:28;24.60;54.40
69932;DHT22;57243;52.064;5.116;2022-09-12T13:46:58;24.60;54.30
69932;DHT22;57243;52.064;5.116;2022-09-12T13:49:36;24.60;54.20
69932;DHT22;57243;52.064;5.116;2022-09-12T13:52:08;24.60;53.90
69932;DHT22;57243;52.064;5.116;2022-09-12T13:54:38;24.60;54.00
69932;DHT22;57243;52.064;5.116;2022-09-12T13:57:05;24.60;54.00
69932;DHT22;57243;52.064;5.116;2022-09-12T13:59:49;24.60;53.90
69932;DHT22;57243;52.064;5.116;2022-09-12T14:02:20;24.60;54.00
69932;DHT22;57243;52.064;5.116;2022-09-12T14:04:52;24.70;54.00
69932;DHT22;57243;52.064;5.116;2022-09-12T14:07:56;24.70;53.70
69932;DHT22;57243;52.064;5.116;2022-09-12T14:10:33;24.70;53.70
69932;DHT22;57243;52.064;5.116;2022-09-12T14:13:01;24.70;53.50
69932;DHT22;57243;52.064;5.116;2022-09-12T14:15:29;24.70;53.60
69932;DHT22;57243;52.064;5.116;2022-09-12T14:17:58;24.70;53.50
69932;DHT22;57243;52.064;5.116;2022-09-12T14:20:27;24.70;53.60
69932;DHT22;57243;52.064;5.116;2022-09-12T14:22:59;24.70;53.50
69932;DHT22;57243;52.064;5.116;2022-09-12T14:25:26;24.60;53.60
69932;DHT22;57243;52.064;5.116;2022-09-12T14:27:56;24.60;53.60
69932;DHT22;57243;52.064;5.116;2022-09-12T14:30:29;24.60;53.90
69932;DHT22;57243;52.064;5.116;2022-09-12T14:35:30;24.60;53.90
69932;DHT22;57243;52.064;5.116;2022-09-12T14:38:30;24.60;53.80
69932;DHT22;57243;52.064;5.116;2022-09-12T14:41:01;24.50;54.30
69932;DHT22;57243;52.064;5.116;2022-09-12T14:43:32;24.50;53.90
69932;DHT22;57243;52.064;5.116;2022-09-12T14:46:04;24.50;53.60
69932;DHT22;57243;52.064;5.116;2022-09-12T14:48:33;24.60;53.80
69932;DHT22;57243;52.064;5.116;2022-09-12T14:51:00;24.60;53.90
69932;DHT22;57243;52.064;5.116;2022-09-12T14:53:35;24.60;53.80
69932;DHT22;57243;52.064;5.116;2022-09-12T14:56:12;24.60;53.60
69932;DHT22;57243;52.064;5.116;2022-09-12T14:58:40;24.60;53.70
69932;DHT22;57243;52.064;5.116;2022-09-12T15:05:57;24.60;53.40
69932;DHT22;57243;52.064;5.116;2022-09-12T15:08:24;24.70;53.40
69932;DHT22;57243;52.064;5.116;2022-09-12T15:10:49;24.70;53.40
69932;DHT22;57243;52.064;5.116;2022-09-12T15:13:18;24.70;53.50
69932;DHT22;57243;52.064;5.116;2022-09-12T15:15:57;24.70;53.50
69932;DHT22;57243;52.064;5.116;2022-09-12T15:18:25;24.70;53.50
69932;DHT22;57243;52.064;5.116;2022-09-12T15:20:54;24.70;53.60
69932;DHT22;57243;52.064;5.116;2022-09-12T15:25:46;24.70;53.70
69932;DHT22;57243;52.064;5.116;2022-09-12T15:28:18;24.70;53.70
69932;DHT22;57243;52.064;5.116;2022-09-12T15:30:45;24.70;53.60
69932;DHT22;57243;52.064;5.116;2022-09-12T15:33:11;24.70;53.60
69932;DHT22;57243;52.064;5.116;2022-09-12T15:35:37;24.70;53.60
69932;DHT22;57243;52.064;5.116;2022-09-12T15:38:03;24.70;53.60
69932;DHT22;57243;52.064;5.116;2022-09-12T15:40:29;24.70;53.60
69932;DHT22;57243;52.064;5.116;2022-09-12T15:42:54;24.70;53.60
69932;DHT22;57243;52.064;5.116;2022-09-12T15:45:26;24.70;53.60
69932;DHT22;57243;52.064;5.116;2022-09-12T15:47:54;24.70;53.40
69932;DHT22;57243;52.064;5.116;2022-09-12T15:50:20;24.70;53.40
69932;DHT22;57243;52.064;5.116;2022-09-12T15:52:46;24.70;53.40
69932;DHT22;57243;52.064;5.116;2022-09-12T15:55:18;24.70;53.50
69932;DHT22;57243;52.064;5.116;2022-09-12T15:57:43;24.70;53.50
69932;DHT22;57243;52.064;5.116;2022-09-12T16:00:11;24.70;53.80
69932;DHT22;57243;52.064;5.116;2022-09-12T16:02:37;24.70;53.80
69932;DHT22;57243;52.064;5.116;2022-09-12T16:05:03;24.70;53.50
69932;DHT22;57243;52.064;5.116;2022-09-12T16:07:29;24.70;53.50
69932;DHT22;57243;52.064;5.116;2022-09-12T16:09:55;24.70;53.30
69932;DHT22;57243;52.064;5.116;2022-09-12T16:12:20;24.70;53.30
69932;DHT22;57243;52.064;5.116;2022-09-12T16:14:46;24.70;53.30
69932;DHT22;57243;52.064;5.116;2022-09-12T16:17:12;24.70;53.50
69932;DHT22;57243;52.064;5.116;2022-09-12T16:19:37;24.60;53.40
69932;DHT22;57243;52.064;5.116;2022-09-12T16:22:03;24.60;53.30
69932;DHT22;57243;52.064;5.116;2022-09-12T16:24:28;24.60;53.50
69932;DHT22;57243;52.064;5.116;2022-09-12T16:26:54;24.60;53.50
69932;DHT22;57243;52.064;5.116;2022-09-12T16:29:19;24.60;53.20
69932;DHT22;57243;52.064;5.116;2022-09-12T16:31:45;24.60;53.10
69932;DHT22;57243;52.064;5.116;2022-09-12T16:34:10;24.60;53.00
69932;DHT22;57243;52.064;5.116;2022-09-12T16:36:36;24.50;53.20
69932;DHT22;57243;52.064;5.116;2022-09-12T16:39:02;24.50;53.00
69932;DHT22;57243;52.064;5.116;2022-09-12T16:41:28;24.50;53.20
69932;DHT22;57243;52.064;5.116;2022-09-12T16:43:54;24.50;53.30
69932;DHT22;57243;52.064;5.116;2022-09-12T16:46:24;24.50;53.80
69932;DHT22;57243;52.064;5.116;2022-09-12T16:48:55;24.50;53.90
69932;DHT22;57243;52.064;5.116;2022-09-12T16:51:35;24.40;53.90
69932;DHT22;57243;52.064;5.116;2022-09-12T16:54:00;24.40;53.90
69932;DHT22;57243;52.064;5.116;2022-09-12T16:56:26;24.40;53.90
69932;DHT22;57243;52.064;5.116;2022-09-12T16:58:52;24.40;53.90
69932;DHT22;57243;52.064;5.116;2022-09-12T17:01:20;24.40;54.00
69932;DHT22;57243;52.064;5.116;2022-09-12T17:03:47;24.40;53.90
69932;DHT22;57243;52.064;5.116;2022-09-12T17:06:15;24.40;53.90
69932;DHT22;57243;52.064;5.116;2022-09-12T17:08:45;24.40;53.90
69932;DHT22;57243;52.064;5.116;2022-09-12T17:11:37;24.40;53.90
69932;DHT22;57243;52.064;5.116;2022-09-12T17:14:05;24.30;53.90
69932;DHT22;57243;52.064;5.116;2022-09-12T17:16:33;24.30;53.90
69932;DHT22;57243;52.064;5.116;2022-09-12T17:18:59;24.30;53.60
69932;DHT22;57243;52.064;5.116;2022-09-12T17:21:25;24.30;53.60
69932;DHT22;57243;52.064;5.116;2022-09-12T17:23:51;24.30;52.70
69932;DHT22;57243;52.064;5.116;2022-09-12T17:26:16;24.30;52.90
69932;DHT22;57243;52.064;5.116;2022-09-12T17:28:43;24.30;52.70
69932;DHT22;57243;52.064;5.116;2022-09-12T17:31:11;24.30;52.60
69932;DHT22;57243;52.064;5.116;2022-09-12T17:33:38;24.30;52.70
69932;DHT22;57243;52.064;5.116;2022-09-12T17:36:12;24.30;52.70
69932;DHT22;57243;52.064;5.116;2022-09-12T17:38:40;24.30;53.10
69932;DHT22;57243;52.064;5.116;2022-09-12T17:41:07;24.30;53.50
69932;DHT22;57243;52.064;5.116;2022-09-12T17:43:34;24.30;53.10
69932;DHT22;57243;52.064;5.116;2022-09-12T17:46:03;24.30;53.50
69932;DHT22;57243;52.064;5.116;2022-09-12T17:48:29;24.30;53.50
69932;DHT22;57243;52.064;5.116;2022-09-12T17:50:54;24.30;53.60
69932;DHT22;57243;52.064;5.116;2022-09-12T17:53:20;24.30;53.40
69932;DHT22;57243;52.064;5.116;2022-09-12T17:55:45;24.30;53.50
69932;DHT22;57243;52.064;5.116;2022-09-12T17:58:12;24.30;53.70
69932;DHT22;57243;52.064;5.116;2022-09-12T18:00:38;24.30;53.70
69932;DHT22;57243;52.064;5.116;2022-09-12T18:03:23;24.30;53.90
69932;DHT22;57243;52.064;5.116;2022-09-12T18:05:53;24.30;53.90
69932;DHT22;57243;52.064;5.116;2022-09-12T18:08:20;24.30;54.30
69932;DHT22;57243;52.064;5.116;2022-09-12T18:10:46;24.30;54.30
69932;DHT22;57243;52.064;5.116;2022-09-12T18:13:12;24.30;54.30
69932;DHT22;57243;52.064;5.116;2022-09-12T18:15:37;24.30;54.10
69932;DHT22;57243;52.064;5.116;2022-09-12T18:18:04;24.30;54.20
69932;DHT22;57243;52.064;5.116;2022-09-12T18:20:30;24.20;54.00
69932;DHT22;57243;52.064;5.116;2022-09-12T18:22:55;24.20;53.90
69932;DHT22;57243;52.064;5.116;2022-09-12T18:25:21;24.20;54.10
69932;DHT22;57243;52.064;5.116;2022-09-12T18:27:46;24.20;53.90
69932;DHT22;57243;52.064;5.116;2022-09-12T18:30:12;24.20;53.90
69932;DHT22;57243;52.064;5.116;2022-09-12T18:32:39;24.20;54.10
69932;DHT22;57243;52.064;5.116;2022-09-12T18:35:06;24.20;54.10
69932;DHT22;57243;52.064;5.116;2022-09-12T18:37:32;24.20;54.20
69932;DHT22;57243;52.064;5.116;2022-09-12T18:39:57;24.20;54.20